createdAt,value
2023-03-20T00:01:19.644Z,12.80
2023-03-20T00:03:48.171Z,15.40
2023-03-20T00:06:17.519Z,16.37
2023-03-20T00:08:46.717Z,16.30
2023-03-20T00:11:28.984Z,11.23
2023-03-20T00:13:58.221Z,15.70
2023-03-20T00:16:28.925Z,12.93
2023-03-20T00:18:57.329Z,12.80
2023-03-20T00:21:25.692Z,16.10
2023-03-20T00:23:54.504Z,16.77
2023-03-20T00:26:24.707Z,14.63
2023-03-20T00:28:54.412Z,13.00
2023-03-20T00:31:24.577Z,16.93
2023-03-20T00:33:52.973Z,16.33
2023-03-20T00:36:21.336Z,12.60
2023-03-20T00:38:49.577Z,14.30
2023-03-20T00:41:23.608Z,16.30
2023-03-20T00:43:53.327Z,13.33
2023-03-20T00:46:23.115Z,14.17
2023-03-20T00:48:51.815Z,13.77
2023-03-20T00:51:20.361Z,15.80
2023-03-20T00:53:48.640Z,15.27
2023-03-20T00:56:30.440Z,12.10
2023-03-20T00:58:58.843Z,12.87
2023-03-20T01:01:28.408Z,12.93
2023-03-20T01:03:56.605Z,10.70
2023-03-20T01:06:24.741Z,12.03
2023-03-20T01:08:52.900Z,11.33
2023-03-20T01:11:23.804Z,11.73
2023-03-20T01:13:52.338Z,13.47
2023-03-20T01:16:22.317Z,13.77
2023-03-20T01:18:52.048Z,15.57
2023-03-20T01:21:21.140Z,12.47
2023-03-20T01:23:49.524Z,9.83
2023-03-20T01:26:22.323Z,13.40
2023-03-20T01:28:50.550Z,12.60
2023-03-20T01:31:19.396Z,10.50
2023-03-20T01:33:47.750Z,10.20
2023-03-20T01:36:19.608Z,13.70
2023-03-20T01:38:47.854Z,15.97
2023-03-20T01:41:18.051Z,13.90
2023-03-20T01:43:46.983Z,10.90
2023-03-20T01:46:20.128Z,13.03
2023-03-20T01:49:08.966Z,13.43
2023-03-20T01:51:38.519Z,13.30
2023-03-20T01:54:09.094Z,12.83
2023-03-20T01:56:39.356Z,13.03
2023-03-20T01:59:10.281Z,15.33
2023-03-20T02:01:38.856Z,11.60
2023-03-20T02:04:09.107Z,15.07
2023-03-20T02:06:40.210Z,14.23
2023-03-20T02:09:09.541Z,14.77
2023-03-20T02:11:38.740Z,14.20
2023-03-20T02:14:07.052Z,16.73
2023-03-20T02:16:35.322Z,15.07
2023-03-20T02:19:03.700Z,17.37
2023-03-20T02:21:50.756Z,14.87
2023-03-20T02:24:33.007Z,16.33
2023-03-20T02:27:08.132Z,14.07
2023-03-20T02:29:46.931Z,17.97
2023-03-20T02:32:33.075Z,14.67
2023-03-20T02:35:18.653Z,17.23
2023-03-20T02:37:56.428Z,13.23
2023-03-20T02:40:29.097Z,17.03
2023-03-20T02:43:00.306Z,16.57
2023-03-20T02:45:29.488Z,13.97
2023-03-20T02:48:01.125Z,15.43
2023-03-20T02:50:34.157Z,15.43
2023-03-20T02:53:09.528Z,14.30
2023-03-20T02:55:41.661Z,14.17
2023-03-20T02:58:14.318Z,18.00
2023-03-20T03:00:47.516Z,15.50
2023-03-20T03:03:19.419Z,14.53
2023-03-20T03:05:51.426Z,17.70
2023-03-20T03:08:22.394Z,15.23
2023-03-20T03:10:52.969Z,16.40
2023-03-20T03:13:23.094Z,14.53
2023-03-20T03:15:52.904Z,14.07
2023-03-20T03:18:21.768Z,18.23
2023-03-20T03:20:51.952Z,16.67
2023-03-20T03:23:22.910Z,17.33
2023-03-20T03:25:52.572Z,15.27
2023-03-20T03:28:24.693Z,16.53
2023-03-20T03:30:53.780Z,16.17
2023-03-20T03:33:23.301Z,12.30
2023-03-20T03:35:53.158Z,16.23
2023-03-20T03:38:27.050Z,17.33
2023-03-20T03:41:01.281Z,16.70
2023-03-20T03:43:30.634Z,12.93
2023-03-20T03:46:01.188Z,14.57
2023-03-20T03:48:33.209Z,18.50
2023-03-20T03:51:03.605Z,15.30
2023-03-20T03:53:35.245Z,12.93
2023-03-20T03:56:05.327Z,17.07
2023-03-20T03:58:35.309Z,13.20
2023-03-20T04:01:04.316Z,15.40
2023-03-20T04:03:33.882Z,13.23
2023-03-20T04:06:02.636Z,15.00
2023-03-20T04:08:30.878Z,16.87
2023-03-20T04:11:00.736Z,15.43
2023-03-20T04:13:28.890Z,15.40
2023-03-20T04:15:57.316Z,18.30
2023-03-20T04:18:25.695Z,15.70
2023-03-20T04:20:54.704Z,15.40
2023-03-20T04:23:22.869Z,15.67
2023-03-20T04:25:51.624Z,17.10
2023-03-20T04:28:21.299Z,15.03
2023-03-20T04:30:53.851Z,15.07
2023-03-20T04:33:22.062Z,20.07
2023-03-20T04:35:50.488Z,16.83
2023-03-20T04:38:19.056Z,17.20
2023-03-20T04:40:47.842Z,14.57
2023-03-20T04:43:16.527Z,16.00
2023-03-20T04:45:46.090Z,15.47
2023-03-20T04:48:14.228Z,17.33
2023-03-20T04:50:42.441Z,24.13
2023-03-20T04:53:10.753Z,15.33
2023-03-20T04:55:38.973Z,16.43
2023-03-20T04:58:07.186Z,14.23
2023-03-20T05:00:35.836Z,17.17
2023-03-20T05:03:05.457Z,19.13
2023-03-20T05:05:34.442Z,16.50
2023-03-20T05:08:02.949Z,17.67
2023-03-20T05:10:31.192Z,19.33
2023-03-20T05:12:59.587Z,17.73
2023-03-20T05:15:28.313Z,15.97
2023-03-20T05:17:56.462Z,17.83
2023-03-20T05:20:26.000Z,19.73
2023-03-20T05:22:54.196Z,17.53
2023-03-20T05:25:22.382Z,17.07
2023-03-20T05:27:50.554Z,15.10
2023-03-20T05:30:19.640Z,18.43
2023-03-20T05:32:48.007Z,14.80
2023-03-20T05:35:16.371Z,15.27
2023-03-20T05:37:46.209Z,14.47
2023-03-20T05:40:15.356Z,20.93
2023-03-20T05:42:43.743Z,15.60
2023-03-20T05:45:12.323Z,17.17
2023-03-20T05:47:40.768Z,18.47
2023-03-20T05:50:09.194Z,19.23
2023-03-20T05:52:37.320Z,13.03
2023-03-20T05:55:07.380Z,15.93
2023-03-20T05:57:35.842Z,16.40
2023-03-20T06:00:05.525Z,14.13
2023-03-20T06:02:33.784Z,16.30
2023-03-20T06:05:02.065Z,17.97
2023-03-20T06:07:30.394Z,16.30
2023-03-20T06:09:58.554Z,15.53
2023-03-20T06:12:28.080Z,18.17
2023-03-20T06:14:56.292Z,17.47
2023-03-20T06:17:24.536Z,18.83
2023-03-20T06:19:52.759Z,14.23
2023-03-20T06:22:20.984Z,13.83
2023-03-20T06:24:49.145Z,18.07
2023-03-20T06:27:17.379Z,15.97
2023-03-20T06:29:47.130Z,12.90
2023-03-20T06:32:17.268Z,12.50
2023-03-20T06:34:45.502Z,15.27
2023-03-20T06:37:13.710Z,16.70
2023-03-20T06:39:42.125Z,15.07
2023-03-20T06:42:10.634Z,12.33
2023-03-20T06:44:39.062Z,18.13
2023-03-20T06:47:08.657Z,13.80
2023-03-20T06:49:36.810Z,9.30
2023-03-20T06:52:05.012Z,12.83
2023-03-20T06:54:33.201Z,15.97
2023-03-20T06:57:01.378Z,12.47
2023-03-20T06:59:29.556Z,12.67
2023-03-20T07:01:58.228Z,16.17
2023-03-20T07:04:27.929Z,14.30
2023-03-20T07:06:56.674Z,9.37
2023-03-20T07:09:25.100Z,15.67
2023-03-20T07:11:53.714Z,12.17
2023-03-20T07:14:22.492Z,15.33
2023-03-20T07:16:50.943Z,13.47
2023-03-20T07:19:19.349Z,16.33
2023-03-20T07:21:49.044Z,16.50
2023-03-20T07:24:17.876Z,11.70
2023-03-20T07:26:46.353Z,12.90
2023-03-20T07:29:14.905Z,15.20
2023-03-20T07:31:43.159Z,16.77
2023-03-20T07:34:11.394Z,12.03
2023-03-20T07:36:41.201Z,15.03
2023-03-20T07:39:11.150Z,14.73
2023-03-20T07:41:39.345Z,14.27
2023-03-20T07:44:08.259Z,9.43
2023-03-20T07:46:36.422Z,14.10
2023-03-20T07:49:05.767Z,14.47
2023-03-20T07:51:34.245Z,15.43
2023-03-20T07:54:02.354Z,15.83
2023-03-20T07:56:31.890Z,13.53
2023-03-20T07:59:00.087Z,14.87
2023-03-20T08:01:28.323Z,12.27
2023-03-20T08:03:56.847Z,12.70
2023-03-20T08:06:25.081Z,17.43
2023-03-20T08:08:53.805Z,15.07
2023-03-20T08:11:22.002Z,12.80
2023-03-20T08:13:51.627Z,16.23
2023-03-20T08:16:19.918Z,19.43
2023-03-20T08:18:48.455Z,20.33
2023-03-20T08:21:16.594Z,19.50
2023-03-20T08:23:44.733Z,19.93
2023-03-20T08:26:12.969Z,24.97
2023-03-20T08:28:47.420Z,28.37
2023-03-20T08:31:18.668Z,37.80
2023-03-20T08:33:47.321Z,27.30
2023-03-20T08:36:16.233Z,29.10
2023-03-20T08:38:44.789Z,27.27
2023-03-20T08:41:12.936Z,28.23
2023-03-20T08:43:41.123Z,28.37
2023-03-20T08:46:09.638Z,31.53
2023-03-20T08:48:39.213Z,23.13
2023-03-20T08:51:08.256Z,21.70
2023-03-20T08:53:36.546Z,35.03
2023-03-20T08:56:05.303Z,33.60
2023-03-20T08:58:33.515Z,31.60
2023-03-20T09:01:05.358Z,44.77
2023-03-20T09:03:33.520Z,40.40
2023-03-20T09:06:03.112Z,48.53
2023-03-20T09:08:32.065Z,37.23
2023-03-20T09:11:00.529Z,42.63
2023-03-20T09:13:28.757Z,36.00
2023-03-20T09:15:58.147Z,33.23
2023-03-20T09:18:27.794Z,41.30
2023-03-20T09:20:57.011Z,46.40
2023-03-20T09:23:26.618Z,56.97
2023-03-20T09:25:54.794Z,65.80
2023-03-20T09:28:23.194Z,63.00
2023-03-20T09:30:51.492Z,42.60
2023-03-20T09:33:19.709Z,40.67
2023-03-20T09:35:48.074Z,50.47
2023-03-20T09:38:16.269Z,69.37
2023-03-20T09:40:52.515Z,51.50
2023-03-20T09:43:28.597Z,58.50
2023-03-20T09:46:02.403Z,58.67
2023-03-20T09:48:34.038Z,66.97
2023-03-20T09:51:05.509Z,68.33
2023-03-20T09:53:35.444Z,58.77
2023-03-20T09:56:05.277Z,56.83
2023-03-20T09:58:34.812Z,42.77
2023-03-20T10:01:04.631Z,33.20
2023-03-20T10:03:38.339Z,43.03
2023-03-20T10:06:07.851Z,46.83
2023-03-20T10:08:37.258Z,50.47
2023-03-20T10:11:12.443Z,44.20
2023-03-20T10:13:45.960Z,58.43
2023-03-20T10:16:17.527Z,57.03
2023-03-20T10:18:48.332Z,76.37
2023-03-20T10:21:18.797Z,54.27
2023-03-20T10:23:51.809Z,34.57
2023-03-20T10:26:22.578Z,32.43
2023-03-20T10:28:52.547Z,42.97
2023-03-20T10:31:25.773Z,53.00
2023-03-20T10:33:59.024Z,60.77
2023-03-20T10:36:36.045Z,66.53
2023-03-20T10:39:06.831Z,75.90
2023-03-20T10:41:38.138Z,76.53
2023-03-20T10:44:08.170Z,79.70
2023-03-20T10:46:38.001Z,72.57
2023-03-20T10:49:08.705Z,90.83
2023-03-20T10:51:40.817Z,63.30
2023-03-20T10:54:15.608Z,48.97
2023-03-20T10:56:47.911Z,55.93
2023-03-20T10:59:19.416Z,60.87
2023-03-20T11:01:47.536Z,54.77
2023-03-20T11:04:15.785Z,50.07
2023-03-20T11:06:48.061Z,66.80
2023-03-20T11:09:19.085Z,52.27
2023-03-20T11:11:49.528Z,49.00
2023-03-20T11:14:19.351Z,56.77
2023-03-20T11:16:49.991Z,48.00
2023-03-20T11:19:18.789Z,45.60
2023-03-20T11:21:48.160Z,36.10
2023-03-20T11:24:29.547Z,47.63
2023-03-20T11:27:06.292Z,34.60
2023-03-20T11:29:35.769Z,45.57
2023-03-20T11:32:07.774Z,63.73
2023-03-20T11:34:38.707Z,64.23
2023-03-20T11:37:10.783Z,65.97
2023-03-20T11:39:42.066Z,73.53
2023-03-20T11:42:24.131Z,104.53
2023-03-20T11:44:58.673Z,89.50
2023-03-20T11:47:28.011Z,118.23
2023-03-20T11:49:56.951Z,126.33
2023-03-20T11:52:28.678Z,166.73
2023-03-20T11:54:58.030Z,174.20
2023-03-20T11:57:33.535Z,165.57
2023-03-20T12:00:03.622Z,155.50
2023-03-20T12:02:31.982Z,125.80
2023-03-20T12:05:01.433Z,136.90
2023-03-20T12:07:31.771Z,140.20
2023-03-20T12:10:01.625Z,148.83
2023-03-20T12:12:36.920Z,148.03
2023-03-20T12:15:09.921Z,157.77
2023-03-20T12:17:44.477Z,181.73
2023-03-20T12:20:25.082Z,202.23
2023-03-20T12:22:56.283Z,167.07
2023-03-20T12:25:26.011Z,163.77
2023-03-20T12:28:06.263Z,203.70
2023-03-20T12:30:41.064Z,155.37
2023-03-20T12:33:12.950Z,183.37
2023-03-20T12:35:44.687Z,198.83
2023-03-20T12:38:19.850Z,252.27
2023-03-20T12:40:48.043Z,205.33
2023-03-20T12:43:20.622Z,239.93
2023-03-20T12:45:53.338Z,204.97
2023-03-20T12:48:33.850Z,189.37
2023-03-20T12:51:05.742Z,180.50
2023-03-20T12:53:41.082Z,210.50
2023-03-20T12:56:15.595Z,236.90
2023-03-20T12:58:46.822Z,266.03
2023-03-20T13:01:19.540Z,282.33
2023-03-20T13:03:57.866Z,247.40
2023-03-20T13:06:32.207Z,269.57
2023-03-20T13:09:06.478Z,223.63
2023-03-20T13:11:38.366Z,207.80
2023-03-20T13:14:11.758Z,221.67
2023-03-20T13:16:45.625Z,230.23
2023-03-20T13:19:15.738Z,222.90
2023-03-20T13:21:48.764Z,241.10
2023-03-20T13:24:23.254Z,266.20
2023-03-20T13:26:56.170Z,269.10
2023-03-20T13:29:28.317Z,276.57
2023-03-20T13:32:02.962Z,317.73
2023-03-20T13:34:35.694Z,275.50
2023-03-20T13:37:22.417Z,278.03
2023-03-20T13:40:00.314Z,314.40
2023-03-20T13:42:31.382Z,326.47
2023-03-20T13:45:03.829Z,366.07
2023-03-20T13:47:33.767Z,404.43
2023-03-20T13:50:05.377Z,413.23
2023-03-20T13:52:38.139Z,427.47
2023-03-20T13:55:16.335Z,506.33
2023-03-20T13:57:51.918Z,485.90
2023-03-20T14:00:26.539Z,580.70
2023-03-20T14:03:07.464Z,595.13
2023-03-20T14:05:37.789Z,638.63
2023-03-20T14:08:23.184Z,629.30
2023-03-20T14:10:57.688Z,664.07
2023-03-20T14:13:27.976Z,673.50
2023-03-20T14:15:58.817Z,609.17
2023-03-20T14:18:27.497Z,601.03
2023-03-20T14:20:56.934Z,619.10
2023-03-20T14:23:33.956Z,645.33
2023-03-20T14:26:02.434Z,692.53
2023-03-20T14:28:34.459Z,673.90
2023-03-20T14:31:22.964Z,620.47
2023-03-20T14:33:56.431Z,615.30
2023-03-20T14:36:27.783Z,677.03
2023-03-20T14:39:01.155Z,598.70
2023-03-20T14:41:32.054Z,635.33
2023-03-20T14:44:06.199Z,606.13
2023-03-20T14:46:42.097Z,685.00
2023-03-20T14:49:24.275Z,698.90
2023-03-20T14:51:54.524Z,707.47
2023-03-20T14:54:26.522Z,681.70
2023-03-20T14:56:54.792Z,716.93
2023-03-20T14:59:23.678Z,711.90
2023-03-20T15:01:58.861Z,748.53
2023-03-20T15:04:29.791Z,746.53
2023-03-20T15:06:59.483Z,757.10
2023-03-20T15:09:29.374Z,732.23
2023-03-20T15:12:04.114Z,715.83
2023-03-20T15:14:34.770Z,743.73
2023-03-20T15:17:05.389Z,749.40
2023-03-20T15:19:35.757Z,757.87
2023-03-20T15:22:03.992Z,764.53
2023-03-20T15:24:32.227Z,802.23
2023-03-20T15:27:01.423Z,749.07
2023-03-20T15:29:31.428Z,736.13
2023-03-20T15:32:13.383Z,767.90
2023-03-20T15:34:44.099Z,766.57
2023-03-20T15:37:15.529Z,774.17
2023-03-20T15:39:44.520Z,782.10
2023-03-20T15:42:15.044Z,797.20
2023-03-20T15:44:44.749Z,774.23
2023-03-20T15:47:16.863Z,804.93
2023-03-20T15:49:50.272Z,786.67
2023-03-20T15:52:22.687Z,737.23
2023-03-20T15:54:51.185Z,775.23
2023-03-20T15:57:23.955Z,782.87
2023-03-20T15:59:52.377Z,793.80
2023-03-20T16:02:21.075Z,786.40
2023-03-20T16:04:54.221Z,798.40
2023-03-20T16:07:23.485Z,769.83
2023-03-20T16:09:52.402Z,764.00
2023-03-20T16:12:20.802Z,755.87
2023-03-20T16:14:49.712Z,728.43
2023-03-20T16:17:18.871Z,679.87
2023-03-20T16:19:47.071Z,672.10
2023-03-20T16:22:21.118Z,634.13
2023-03-20T16:24:50.469Z,663.83
2023-03-20T16:27:23.861Z,670.97
2023-03-20T16:29:53.518Z,666.47
2023-03-20T16:32:26.790Z,691.73
2023-03-20T16:34:56.682Z,730.37
2023-03-20T16:37:27.789Z,723.43
2023-03-20T16:40:06.545Z,709.70
2023-03-20T16:42:34.957Z,753.57
2023-03-20T16:45:06.064Z,737.20
2023-03-20T16:47:39.212Z,722.43
2023-03-20T16:50:17.313Z,706.70
2023-03-20T16:52:49.067Z,696.33
2023-03-20T16:55:19.133Z,720.03
2023-03-20T16:57:49.672Z,722.30
2023-03-20T17:00:23.579Z,708.03
2023-03-20T17:02:52.991Z,690.37
2023-03-20T17:05:23.323Z,677.17
2023-03-20T17:07:57.838Z,682.97
2023-03-20T17:10:28.095Z,717.03
2023-03-20T17:12:56.307Z,678.57
2023-03-20T17:15:25.292Z,698.10
2023-03-20T17:17:53.542Z,714.20
2023-03-20T17:20:23.264Z,722.30
2023-03-20T17:22:52.903Z,698.97
2023-03-20T17:25:21.124Z,693.13
2023-03-20T17:27:49.289Z,684.27
2023-03-20T17:30:19.311Z,703.30
2023-03-20T17:32:47.824Z,717.77
2023-03-20T17:35:16.327Z,750.60
2023-03-20T17:37:44.489Z,744.53
2023-03-20T17:40:18.262Z,751.47
2023-03-20T17:42:46.476Z,768.70
2023-03-20T17:45:15.151Z,791.70
2023-03-20T17:47:43.779Z,788.53
2023-03-20T17:50:18.175Z,790.10
2023-03-20T17:52:46.418Z,788.37
2023-03-20T17:55:16.019Z,788.27
2023-03-20T17:57:44.181Z,788.53
2023-03-20T18:00:16.606Z,802.57
2023-03-20T18:02:45.025Z,782.33
2023-03-20T18:05:13.247Z,805.77
2023-03-20T18:07:41.697Z,802.00
2023-03-20T18:10:17.284Z,796.30
2023-03-20T18:12:46.874Z,775.77
2023-03-20T18:15:15.059Z,799.10
2023-03-20T18:17:43.214Z,795.23
2023-03-20T18:20:21.937Z,795.57
2023-03-20T18:22:50.163Z,801.83
2023-03-20T18:25:18.466Z,821.00
2023-03-20T18:27:48.033Z,789.17
2023-03-20T18:30:17.918Z,803.23
2023-03-20T18:32:46.127Z,806.23
2023-03-20T18:35:14.509Z,809.60
2023-03-20T18:37:42.888Z,794.70
2023-03-20T18:40:17.715Z,819.47
2023-03-20T18:42:46.156Z,801.40
2023-03-20T18:45:16.961Z,817.70
2023-03-20T18:47:45.380Z,819.60
2023-03-20T18:50:25.188Z,806.30
2023-03-20T18:52:54.018Z,797.23
2023-03-20T18:55:23.045Z,811.47
2023-03-20T18:57:51.373Z,826.67
2023-03-20T19:00:25.501Z,776.87
2023-03-20T19:02:55.160Z,799.17
2023-03-20T19:05:23.578Z,818.13
2023-03-20T19:07:52.048Z,827.20
2023-03-20T19:10:26.046Z,811.07
2023-03-20T19:12:54.572Z,816.87
2023-03-20T19:15:24.563Z,824.03
2023-03-20T19:17:52.751Z,820.07
2023-03-20T19:20:28.229Z,823.17
2023-03-20T19:22:56.447Z,822.07
2023-03-20T19:25:24.691Z,817.00
2023-03-20T19:27:53.015Z,817.27
2023-03-20T19:30:27.880Z,828.13
2023-03-20T19:32:56.285Z,814.87
2023-03-20T19:35:47.263Z,825.37
2023-03-20T19:38:14.802Z,817.50
2023-03-20T19:40:44.035Z,834.77
2023-03-20T19:43:12.530Z,832.30
2023-03-20T19:45:43.176Z,838.37
2023-03-20T19:48:15.387Z,843.87
2023-03-20T19:50:43.983Z,847.60
2023-03-20T19:53:12.788Z,853.73
2023-03-20T19:55:41.115Z,844.23
2023-03-20T19:58:09.768Z,841.63
2023-03-20T20:00:56.894Z,840.63
2023-03-20T20:03:27.928Z,836.37
2023-03-20T20:05:56.250Z,842.87
2023-03-20T20:08:41.347Z,823.70
2023-03-20T20:11:14.401Z,818.40
2023-03-20T20:14:04.090Z,826.73
2023-03-20T20:16:31.624Z,838.47
2023-03-20T20:19:01.323Z,842.97
2023-03-20T20:24:18.022Z,833.77
2023-03-20T20:26:54.449Z,831.30
2023-03-20T20:29:25.656Z,838.10
2023-03-20T20:31:53.921Z,851.90
2023-03-20T20:40:00.335Z,851.50
2023-03-20T20:42:28.525Z,835.93
2023-03-20T20:44:56.706Z,832.83
2023-03-20T20:47:24.872Z,833.07
2023-03-20T20:49:54.425Z,835.47
2023-03-20T20:52:22.761Z,817.50
2023-03-20T20:54:50.981Z,823.63
2023-03-20T20:57:19.142Z,814.57
2023-03-20T20:59:47.395Z,810.87
2023-03-20T21:02:17.395Z,810.37
2023-03-20T21:04:45.737Z,799.13
2023-03-20T21:07:15.678Z,803.83
2023-03-20T21:09:43.805Z,832.17
2023-03-20T21:12:22.828Z,830.50
2023-03-20T21:14:54.765Z,808.07
2023-03-20T21:17:23.201Z,822.07
2023-03-20T21:19:51.941Z,829.50
2023-03-20T21:22:22.406Z,826.27
2023-03-20T21:24:52.028Z,845.20
2023-03-20T21:27:22.736Z,831.30
2023-03-20T21:29:51.159Z,827.20
2023-03-20T21:32:20.599Z,814.50
2023-03-20T21:34:49.292Z,822.93
2023-03-20T21:40:08.789Z,827.63
2023-03-20T21:42:37.365Z,845.13
2023-03-20T21:46:09.891Z,828.13
2023-03-20T21:51:07.305Z,830.70
2023-03-20T21:59:47.362Z,825.70
2023-03-20T22:02:14.560Z,838.83
2023-03-20T22:25:15.817Z,822.20
2023-03-20T22:27:55.323Z,823.67
2023-03-20T22:33:49.469Z,817.20
2023-03-20T22:46:58.749Z,852.07
2023-03-20T22:49:27.256Z,854.00
2023-03-20T22:54:43.729Z,865.23
2023-03-20T22:57:11.869Z,855.87
2023-03-20T22:59:40.238Z,839.80
2023-03-20T23:02:10.504Z,815.07
2023-03-20T23:04:38.827Z,815.50
2023-03-20T23:07:07.334Z,822.07
2023-03-20T23:09:35.485Z,815.90
2023-03-20T23:12:03.640Z,798.80
2023-03-20T23:14:44.773Z,810.67
2023-03-20T23:17:15.242Z,820.27
2023-03-20T23:19:50.449Z,816.10
2023-03-20T23:22:22.327Z,805.10
2023-03-20T23:24:51.144Z,788.00
2023-03-20T23:27:20.365Z,807.60
2023-03-20T23:29:48.590Z,806.07
2023-03-20T23:32:18.136Z,803.63
2023-03-20T23:34:46.315Z,787.80
2023-03-20T23:37:14.472Z,787.17
2023-03-20T23:39:43.175Z,779.63
2023-03-20T23:42:27.608Z,803.20
2023-03-20T23:45:04.334Z,791.40
2023-03-20T23:47:44.802Z,793.73
2023-03-20T23:50:26.410Z,812.93
2023-03-20T23:53:06.456Z,812.77
2023-03-20T23:55:42.051Z,808.43
2023-03-20T23:58:10.459Z,804.53
